sensor_id;sensor_type;location;lat;lon;timestamp;pressure;altitude;pressure_sealevel;temperature;humidity
14067;BME280;7108;42.684;23.350;2023-05-03T00:10:12;95650.53;;;13.88;52.65
14067;BME280;7108;42.684;23.350;2023-05-03T00:12:40;95646.38;;;13.94;52.24
14067;BME280;7108;42.684;23.350;2023-05-03T00:15:07;95658.34;;;13.93;51.71
14067;BME280;7108;42.684;23.350;2023-05-03T00:17:33;95633.41;;;13.81;51.66
14067;BME280;7108;42.684;23.350;2023-05-03T00:19:59;95647.78;;;13.85;51.57
14067;BME280;7108;42.684;23.350;2023-05-03T00:22:25;95652.56;;;13.95;52.02
14067;BME280;7108;42.684;23.350;2023-05-03T00:24:51;95656.41;;;13.94;52.22
14067;BME280;7108;42.684;23.350;2023-05-03T00:27:17;95658.72;;;13.92;52.50
14067;BME280;7108;42.684;23.350;2023-05-03T00:29:42;95661.75;;;13.87;52.92
14067;BME280;7108;42.684;23.350;2023-05-03T00:32:08;95656.28;;;13.83;52.50
14067;BME280;7108;42.684;23.350;2023-05-03T00:34:35;95659.31;;;13.78;52.17
14067;BME280;7108;42.684;23.350;2023-05-03T00:37:01;95660.53;;;13.84;52.28
14067;BME280;7108;42.684;23.350;2023-05-03T00:39:28;95648.00;;;13.73;52.13
14067;BME280;7108;42.684;23.350;2023-05-03T00:41:56;95649.47;;;13.67;52.35
14067;BME280;7108;42.684;23.350;2023-05-03T00:44:22;95643.50;;;13.55;52.64
14067;BME280;7108;42.684;23.350;2023-05-03T00:46:47;95645.44;;;13.54;52.65
14067;BME280;7108;42.684;23.350;2023-05-03T00:49:13;95648.97;;;13.58;53.47
14067;BME280;7108;42.684;23.350;2023-05-03T00:51:39;95651.72;;;13.62;53.81
14067;BME280;7108;42.684;23.350;2023-05-03T00:54:06;95662.28;;;13.70;52.86
14067;BME280;7108;42.684;23.350;2023-05-03T00:56:32;95617.47;;;13.47;52.88
14067;BME280;7108;42.684;23.350;2023-05-03T00:58:58;95662.19;;;13.63;52.67
14067;BME280;7108;42.684;23.350;2023-05-03T01:01:24;95650.53;;;13.59;53.08
14067;BME280;7108;42.684;23.350;2023-05-03T01:03:50;95646.25;;;13.58;53.58
14067;BME280;7108;42.684;23.350;2023-05-03T01:09:38;95656.19;;;13.51;53.60
14067;BME280;7108;42.684;23.350;2023-05-03T01:17:35;95647.75;;;13.56;54.16
14067;BME280;7108;42.684;23.350;2023-05-03T01:20:07;95645.47;;;13.58;54.02
14067;BME280;7108;42.684;23.350;2023-05-03T01:25:23;95640.00;;;13.54;54.58
14067;BME280;7108;42.684;23.350;2023-05-03T01:27:49;95635.16;;;13.41;54.21
14067;BME280;7108;42.684;23.350;2023-05-03T01:30:15;95628.75;;;13.26;54.23
14067;BME280;7108;42.684;23.350;2023-05-03T01:35:53;95635.38;;;13.29;55.21
14067;BME280;7108;42.684;23.350;2023-05-03T01:38:22;95633.22;;;13.15;55.68
14067;BME280;7108;42.684;23.350;2023-05-03T01:40:50;95647.91;;;13.14;55.80
14067;BME280;7108;42.684;23.350;2023-05-03T01:43:18;95633.53;;;13.10;56.50
14067;BME280;7108;42.684;23.350;2023-05-03T01:45:44;95615.97;;;12.98;56.85
14067;BME280;7108;42.684;23.350;2023-05-03T01:48:19;95604.72;;;12.96;57.16
14067;BME280;7108;42.684;23.350;2023-05-03T01:50:45;95618.28;;;12.99;57.98
14067;BME280;7108;42.684;23.350;2023-05-03T01:53:11;95592.91;;;12.85;57.80
14067;BME280;7108;42.684;23.350;2023-05-03T01:55:36;95607.34;;;12.92;58.47
14067;BME280;7108;42.684;23.350;2023-05-03T01:58:02;95597.03;;;12.98;59.31
14067;BME280;7108;42.684;23.350;2023-05-03T02:00:28;95591.34;;;12.84;58.49
14067;BME280;7108;42.684;23.350;2023-05-03T02:02:53;95580.50;;;13.03;58.02
14067;BME280;7108;42.684;23.350;2023-05-03T02:05:19;95584.28;;;12.98;57.99
14067;BME280;7108;42.684;23.350;2023-05-03T02:07:44;95572.94;;;12.89;58.57
14067;BME280;7108;42.684;23.350;2023-05-03T02:10:10;95559.69;;;12.84;59.28
14067;BME280;7108;42.684;23.350;2023-05-03T02:12:40;95572.84;;;12.86;60.07
14067;BME280;7108;42.684;23.350;2023-05-03T02:15:06;95585.38;;;12.94;60.01
14067;BME280;7108;42.684;23.350;2023-05-03T02:17:31;95573.97;;;12.85;60.56
14067;BME280;7108;42.684;23.350;2023-05-03T02:19:58;95593.22;;;13.02;60.53
14067;BME280;7108;42.684;23.350;2023-05-03T02:22:23;95564.41;;;12.87;60.93
14067;BME280;7108;42.684;23.350;2023-05-03T02:24:49;95586.59;;;13.00;60.55
14067;BME280;7108;42.684;23.350;2023-05-03T02:27:14;95573.34;;;12.91;60.36
14067;BME280;7108;42.684;23.350;2023-05-03T02:29:40;95581.88;;;12.93;60.50
14067;BME280;7108;42.684;23.350;2023-05-03T02:32:05;95568.47;;;12.78;61.98
14067;BME280;7108;42.684;23.350;2023-05-03T02:34:31;95563.41;;;12.76;60.77
14067;BME280;7108;42.684;23.350;2023-05-03T02:36:57;95573.31;;;12.88;61.79
14067;BME280;7108;42.684;23.350;2023-05-03T02:39:22;95564.63;;;12.79;60.32
14067;BME280;7108;42.684;23.350;2023-05-03T02:41:48;95584.28;;;12.76;61.09
14067;BME280;7108;42.684;23.350;2023-05-03T02:44:13;95596.22;;;12.75;60.75
14067;BME280;7108;42.684;23.350;2023-05-03T02:46:39;95570.56;;;12.65;61.71
14067;BME280;7108;42.684;23.350;2023-05-03T02:49:06;95580.38;;;12.73;61.47
14067;BME280;7108;42.684;23.350;2023-05-03T02:51:32;95580.84;;;12.79;61.96
14067;BME280;7108;42.684;23.350;2023-05-03T02:53:57;95581.75;;;12.86;62.21
14067;BME280;7108;42.684;23.350;2023-05-03T02:56:24;95577.72;;;12.77;62.19
14067;BME280;7108;42.684;23.350;2023-05-03T02:58:53;95580.63;;;12.87;62.93
14067;BME280;7108;42.684;23.350;2023-05-03T03:01:18;95582.25;;;12.92;61.83
14067;BME280;7108;42.684;23.350;2023-05-03T03:03:44;95598.63;;;12.80;62.12
14067;BME280;7108;42.684;23.350;2023-05-03T03:06:10;95581.66;;;12.57;62.65
14067;BME280;7108;42.684;23.350;2023-05-03T03:08:36;95587.53;;;12.62;63.92
14067;BME280;7108;42.684;23.350;2023-05-03T03:11:02;95602.69;;;12.67;63.77
14067;BME280;7108;42.684;23.350;2023-05-03T03:13:28;95604.34;;;12.75;65.54
14067;BME280;7108;42.684;23.350;2023-05-03T03:15:53;95598.09;;;12.71;63.59
14067;BME280;7108;42.684;23.350;2023-05-03T03:18:19;95603.63;;;12.78;65.09
14067;BME280;7108;42.684;23.350;2023-05-03T03:20:45;95616.00;;;12.79;65.03
14067;BME280;7108;42.684;23.350;2023-05-03T03:23:10;95598.41;;;12.66;65.92
14067;BME280;7108;42.684;23.350;2023-05-03T03:25:36;95597.28;;;12.67;66.37
14067;BME280;7108;42.684;23.350;2023-05-03T03:28:01;95602.63;;;12.63;67.72
14067;BME280;7108;42.684;23.350;2023-05-03T03:30:27;95607.19;;;12.59;67.88
14067;BME280;7108;42.684;23.350;2023-05-03T03:32:53;95623.44;;;12.63;67.76
14067;BME280;7108;42.684;23.350;2023-05-03T03:35:18;95609.81;;;12.56;67.94
14067;BME280;7108;42.684;23.350;2023-05-03T03:37:44;95620.72;;;12.63;69.71
14067;BME280;7108;42.684;23.350;2023-05-03T03:40:09;95624.41;;;12.51;68.98
14067;BME280;7108;42.684;23.350;2023-05-03T03:42:35;95622.19;;;12.57;68.83
14067;BME280;7108;42.684;23.350;2023-05-03T03:45:01;95622.31;;;12.64;68.27
14067;BME280;7108;42.684;23.350;2023-05-03T03:47:26;95626.22;;;12.66;68.15
14067;BME280;7108;42.684;23.350;2023-05-03T03:49:52;95645.88;;;12.86;67.60
14067;BME280;7108;42.684;23.350;2023-05-03T03:52:17;95634.16;;;12.78;67.81
14067;BME280;7108;42.684;23.350;2023-05-03T03:54:43;95647.38;;;12.83;67.22
14067;BME280;7108;42.684;23.350;2023-05-03T03:57:08;95642.13;;;12.90;67.31
14067;BME280;7108;42.684;23.350;2023-05-03T03:59:34;95652.56;;;12.92;67.27
14067;BME280;7108;42.684;23.350;2023-05-03T04:01:59;95631.38;;;12.75;67.04
14067;BME280;7108;42.684;23.350;2023-05-03T04:04:25;95631.81;;;12.77;67.91
14067;BME280;7108;42.684;23.350;2023-05-03T04:06:53;95651.28;;;12.86;68.85
14067;BME280;7108;42.684;23.350;2023-05-03T04:09:19;95641.50;;;12.78;67.72
14067;BME280;7108;42.684;23.350;2023-05-03T04:11:45;95655.91;;;12.85;66.25
14067;BME280;7108;42.684;23.350;2023-05-03T04:14:11;95670.91;;;13.02;67.26
14067;BME280;7108;42.684;23.350;2023-05-03T04:16:36;95667.13;;;13.06;66.38
14067;BME280;7108;42.684;23.350;2023-05-03T04:19:02;95651.72;;;12.88;66.42
14067;BME280;7108;42.684;23.350;2023-05-03T04:21:27;95671.81;;;12.87;65.89
14067;BME280;7108;42.684;23.350;2023-05-03T04:23:53;95679.97;;;12.90;67.15
14067;BME280;7108;42.684;23.350;2023-05-03T04:26:19;95678.56;;;13.00;68.04
14067;BME280;7108;42.684;23.350;2023-05-03T04:28:46;95681.59;;;12.95;67.99
14067;BME280;7108;42.684;23.350;2023-05-03T04:31:12;95691.47;;;13.06;67.09
14067;BME280;7108;42.684;23.350;2023-05-03T04:33:38;95690.72;;;13.09;68.94
14067;BME280;7108;42.684;23.350;2023-05-03T04:36:04;95675.84;;;12.96;68.53
14067;BME280;7108;42.684;23.350;2023-05-03T04:38:30;95687.00;;;13.17;72.26
14067;BME280;7108;42.684;23.350;2023-05-03T04:40:56;95699.31;;;13.14;71.68
14067;BME280;7108;42.684;23.350;2023-05-03T04:43:22;95700.03;;;13.11;75.93
14067;BME280;7108;42.684;23.350;2023-05-03T04:45:48;95705.00;;;13.06;78.99
14067;BME280;7108;42.684;23.350;2023-05-03T04:48:13;95702.44;;;12.94;80.45
14067;BME280;7108;42.684;23.350;2023-05-03T04:50:39;95720.31;;;12.99;78.54
14067;BME280;7108;42.684;23.350;2023-05-03T04:53:04;95722.19;;;12.76;82.85
14067;BME280;7108;42.684;23.350;2023-05-03T04:55:30;95723.06;;;12.61;85.17
14067;BME280;7108;42.684;23.350;2023-05-03T04:57:56;95712.84;;;12.51;84.33
14067;BME280;7108;42.684;23.350;2023-05-03T05:00:21;95731.81;;;12.36;86.87
14067;BME280;7108;42.684;23.350;2023-05-03T05:02:47;95726.53;;;12.24;88.98
14067;BME280;7108;42.684;23.350;2023-05-03T05:05:13;95726.06;;;12.18;90.19
14067;BME280;7108;42.684;23.350;2023-05-03T05:07:38;95730.97;;;12.13;90.17
14067;BME280;7108;42.684;23.350;2023-05-03T05:10:04;95739.84;;;12.13;94.52
14067;BME280;7108;42.684;23.350;2023-05-03T05:12:30;95739.00;;;12.09;100.00
14067;BME280;7108;42.684;23.350;2023-05-03T05:14:56;95743.88;;;12.04;100.00
14067;BME280;7108;42.684;23.350;2023-05-03T05:17:22;95749.44;;;12.11;100.00
14067;BME280;7108;42.684;23.350;2023-05-03T05:19:49;95730.28;;;12.00;100.00
14067;BME280;7108;42.684;23.350;2023-05-03T05:22:15;95753.44;;;12.17;100.00
14067;BME280;7108;42.684;23.350;2023-05-03T05:24:43;95752.97;;;11.96;100.00
14067;BME280;7108;42.684;23.350;2023-05-03T05:27:09;95756.72;;;11.91;100.00
14067;BME280;7108;42.684;23.350;2023-05-03T05:29:34;95756.03;;;11.94;100.00
14067;BME280;7108;42.684;23.350;2023-05-03T05:32:00;95774.19;;;12.13;100.00
14067;BME280;7108;42.684;23.350;2023-05-03T05:34:27;95750.44;;;12.03;100.00
14067;BME280;7108;42.684;23.350;2023-05-03T05:36:53;95758.25;;;12.08;100.00
14067;BME280;7108;42.684;23.350;2023-05-03T05:39:18;95756.34;;;12.08;100.00
14067;BME280;7108;42.684;23.350;2023-05-03T05:41:48;95764.53;;;12.31;100.00
14067;BME280;7108;42.684;23.350;2023-05-03T05:44:13;95760.41;;;12.37;100.00
14067;BME280;7108;42.684;23.350;2023-05-03T05:46:39;95756.13;;;12.36;100.00
14067;BME280;7108;42.684;23.350;2023-05-03T05:49:05;95764.47;;;12.46;100.00
14067;BME280;7108;42.684;23.350;2023-05-03T05:51:31;95766.09;;;12.50;100.00
14067;BME280;7108;42.684;23.350;2023-05-03T05:53:59;95748.88;;;12.40;100.00
14067;BME280;7108;42.684;23.350;2023-05-03T05:56:25;95755.09;;;12.40;100.00
14067;BME280;7108;42.684;23.350;2023-05-03T05:58:50;95751.25;;;12.41;100.00
14067;BME280;7108;42.684;23.350;2023-05-03T06:01:16;95747.09;;;12.47;100.00
14067;BME280;7108;42.684;23.350;2023-05-03T06:03:41;95728.19;;;12.28;100.00
14067;BME280;7108;42.684;23.350;2023-05-03T06:06:07;95750.03;;;12.39;100.00
14067;BME280;7108;42.684;23.350;2023-05-03T06:08:32;95745.69;;;12.34;100.00
14067;BME280;7108;42.684;23.350;2023-05-03T06:10:58;95740.22;;;12.49;100.00
14067;BME280;7108;42.684;23.350;2023-05-03T06:13:23;95737.63;;;12.56;100.00
14067;BME280;7108;42.684;23.350;2023-05-03T06:15:49;95732.75;;;12.62;100.00
14067;BME280;7108;42.684;23.350;2023-05-03T06:18:14;95741.75;;;12.69;100.00
14067;BME280;7108;42.684;23.350;2023-05-03T06:20:40;95726.31;;;12.70;100.00
14067;BME280;7108;42.684;23.350;2023-05-03T06:23:06;95734.19;;;12.78;100.00
14067;BME280;7108;42.684;23.350;2023-05-03T06:25:31;95739.75;;;12.85;100.00
14067;BME280;7108;42.684;23.350;2023-05-03T06:27:57;95743.22;;;12.86;100.00
14067;BME280;7108;42.684;23.350;2023-05-03T06:30:22;95738.47;;;12.79;100.00
14067;BME280;7108;42.684;23.350;2023-05-03T06:32:49;95747.22;;;12.92;100.00
14067;BME280;7108;42.684;23.350;2023-05-03T06:35:15;95723.31;;;12.75;100.00
14067;BME280;7108;42.684;23.350;2023-05-03T06:37:43;95737.66;;;12.79;100.00
14067;BME280;7108;42.684;23.350;2023-05-03T06:40:09;95736.84;;;12.75;100.00
14067;BME280;7108;42.684;23.350;2023-05-03T06:42:34;95718.50;;;12.65;100.00
14067;BME280;7108;42.684;23.350;2023-05-03T06:45:00;95731.56;;;12.82;100.00
14067;BME280;7108;42.684;23.350;2023-05-03T06:47:25;95728.44;;;12.80;100.00
14067;BME280;7108;42.684;23.350;2023-05-03T06:49:54;95721.59;;;12.86;100.00
14067;BME280;7108;42.684;23.350;2023-05-03T06:52:19;95713.22;;;12.91;100.00
14067;BME280;7108;42.684;23.350;2023-05-03T06:54:45;95715.81;;;13.06;100.00
14067;BME280;7108;42.684;23.350;2023-05-03T06:57:10;95703.78;;;13.04;100.00
14067;BME280;7108;42.684;23.350;2023-05-03T06:59:35;95675.34;;;12.91;99.61
14067;BME280;7108;42.684;23.350;2023-05-03T07:02:01;95702.81;;;13.15;100.00
14067;BME280;7108;42.684;23.350;2023-05-03T07:04:29;95695.38;;;13.09;100.00
14067;BME280;7108;42.684;23.350;2023-05-03T07:06:55;95687.78;;;13.17;100.00
14067;BME280;7108;42.684;23.350;2023-05-03T07:09:20;95674.97;;;13.14;97.68
14067;BME280;7108;42.684;23.350;2023-05-03T07:11:46;95682.44;;;13.21;97.86
14067;BME280;7108;42.684;23.350;2023-05-03T07:14:15;95681.03;;;13.08;96.53
14067;BME280;7108;42.684;23.350;2023-05-03T07:16:40;95710.25;;;13.21;98.60
14067;BME280;7108;42.684;23.350;2023-05-03T07:19:09;95723.09;;;13.24;97.47
14067;BME280;7108;42.684;23.350;2023-05-03T07:21:34;95707.56;;;13.21;100.00
14067;BME280;7108;42.684;23.350;2023-05-03T07:24:00;95710.25;;;13.21;100.00
14067;BME280;7108;42.684;23.350;2023-05-03T07:26:26;95690.41;;;13.14;100.00
14067;BME280;7108;42.684;23.350;2023-05-03T07:28:52;95697.19;;;13.01;100.00
14067;BME280;7108;42.684;23.350;2023-05-03T07:31:17;95689.41;;;13.00;100.00
14067;BME280;7108;42.684;23.350;2023-05-03T07:33:43;95683.59;;;12.79;100.00
14067;BME280;7108;42.684;23.350;2023-05-03T07:36:08;95716.97;;;12.86;100.00
14067;BME280;7108;42.684;23.350;2023-05-03T07:38:34;95706.78;;;12.80;100.00
14067;BME280;7108;42.684;23.350;2023-05-03T07:41:00;95688.75;;;12.65;100.00
14067;BME280;7108;42.684;23.350;2023-05-03T07:43:25;95660.81;;;12.57;100.00
14067;BME280;7108;42.684;23.350;2023-05-03T07:45:51;95675.00;;;12.73;100.00
14067;BME280;7108;42.684;23.350;2023-05-03T07:48:17;95659.16;;;12.72;100.00
14067;BME280;7108;42.684;23.350;2023-05-03T07:50:43;95686.78;;;12.84;100.00
14067;BME280;7108;42.684;23.350;2023-05-03T07:53:11;95696.59;;;12.92;100.00
14067;BME280;7108;42.684;23.350;2023-05-03T07:55:37;95709.94;;;12.82;100.00
14067;BME280;7108;42.684;23.350;2023-05-03T07:58:03;95712.38;;;12.87;100.00
14067;BME280;7108;42.684;23.350;2023-05-03T08:00:29;95702.88;;;12.77;100.00
14067;BME280;7108;42.684;23.350;2023-05-03T08:02:55;95697.53;;;12.81;100.00
14067;BME280;7108;42.684;23.350;2023-05-03T08:05:21;95701.09;;;12.85;100.00
14067;BME280;7108;42.684;23.350;2023-05-03T08:07:48;95712.38;;;12.87;100.00
14067;BME280;7108;42.684;23.350;2023-05-03T08:10:13;95721.16;;;12.84;100.00
14067;BME280;7108;42.684;23.350;2023-05-03T08:12:39;95711.72;;;12.74;100.00
14067;BME280;7108;42.684;23.350;2023-05-03T08:15:05;95705.34;;;12.63;100.00
14067;BME280;7108;42.684;23.350;2023-05-03T08:17:31;95711.13;;;12.84;100.00
14067;BME280;7108;42.684;23.350;2023-05-03T08:19:57;95707.94;;;12.98;100.00
14067;BME280;7108;42.684;23.350;2023-05-03T08:22:22;95690.50;;;12.95;100.00
14067;BME280;7108;42.684;23.350;2023-05-03T08:24:50;95691.19;;;13.14;100.00
14067;BME280;7108;42.684;23.350;2023-05-03T08:27:16;95697.63;;;13.29;100.00
14067;BME280;7108;42.684;23.350;2023-05-03T08:29:42;95693.47;;;13.35;100.00
14067;BME280;7108;42.684;23.350;2023-05-03T08:32:07;95705.06;;;13.61;100.00
14067;BME280;7108;42.684;23.350;2023-05-03T08:34:33;95707.69;;;13.80;100.00
14067;BME280;7108;42.684;23.350;2023-05-03T08:36:58;95695.41;;;13.86;100.00
14067;BME280;7108;42.684;23.350;2023-05-03T08:39:24;95708.63;;;13.91;100.00
14067;BME280;7108;42.684;23.350;2023-05-03T08:41:55;95710.91;;;14.15;100.00
14067;BME280;7108;42.684;23.350;2023-05-03T08:44:22;95704.75;;;14.18;100.00
14067;BME280;7108;42.684;23.350;2023-05-03T08:46:51;95700.22;;;14.29;100.00
14067;BME280;7108;42.684;23.350;2023-05-03T08:49:17;95714.47;;;14.22;100.00
14067;BME280;7108;42.684;23.350;2023-05-03T08:51:43;95689.59;;;14.13;100.00
14067;BME280;7108;42.684;23.350;2023-05-03T08:54:14;95713.16;;;14.39;100.00
14067;BME280;7108;42.684;23.350;2023-05-03T08:56:41;95716.75;;;14.49;100.00
14067;BME280;7108;42.684;23.350;2023-05-03T08:59:09;95703.16;;;14.46;100.00
14067;BME280;7108;42.684;23.350;2023-05-03T09:01:35;95698.56;;;14.50;100.00
14067;BME280;7108;42.684;23.350;2023-05-03T09:04:01;95700.00;;;14.41;100.00
14067;BME280;7108;42.684;23.350;2023-05-03T09:06:28;95717.50;;;14.46;100.00
14067;BME280;7108;42.684;23.350;2023-05-03T09:08:55;95717.06;;;14.44;100.00
14067;BME280;7108;42.684;23.350;2023-05-03T09:11:31;95706.97;;;14.42;100.00
14067;BME280;7108;42.684;23.350;2023-05-03T09:16:33;95694.28;;;14.49;100.00
14067;BME280;7108;42.684;23.350;2023-05-03T09:19:00;95670.25;;;14.47;100.00
14067;BME280;7108;42.684;23.350;2023-05-03T09:21:26;95671.25;;;14.69;100.00
14067;BME280;7108;42.684;23.350;2023-05-03T09:23:52;95688.94;;;14.92;100.00
14067;BME280;7108;42.684;23.350;2023-05-03T09:26:34;95678.22;;;15.06;100.00
14067;BME280;7108;42.684;23.350;2023-05-03T09:29:01;95680.25;;;15.16;100.00
14067;BME280;7108;42.684;23.350;2023-05-03T09:31:28;95675.72;;;15.30;100.00
14067;BME280;7108;42.684;23.350;2023-05-03T09:33:55;95654.34;;;15.25;100.00
14067;BME280;7108;42.684;23.350;2023-05-03T09:36:21;95654.13;;;15.44;100.00
14067;BME280;7108;42.684;23.350;2023-05-03T09:38:47;95661.53;;;15.51;100.00
14067;BME280;7108;42.684;23.350;2023-05-03T09:41:13;95657.69;;;15.55;99.89
14067;BME280;7108;42.684;23.350;2023-05-03T09:43:50;95645.69;;;15.60;100.00
14067;BME280;7108;42.684;23.350;2023-05-03T09:46:16;95631.31;;;15.56;99.45
14067;BME280;7108;42.684;23.350;2023-05-03T09:48:42;95640.63;;;15.58;99.07
14067;BME280;7108;42.684;23.350;2023-05-03T09:51:09;95643.06;;;15.74;99.21
14067;BME280;7108;42.684;23.350;2023-05-03T09:53:36;95643.50;;;15.89;98.16
14067;BME280;7108;42.684;23.350;2023-05-03T09:56:04;95639.38;;;16.09;98.74
14067;BME280;7108;42.684;23.350;2023-05-03T09:58:31;95637.81;;;16.12;97.37
14067;BME280;7108;42.684;23.350;2023-05-03T10:00:59;95645.31;;;16.36;94.94
14067;BME280;7108;42.684;23.350;2023-05-03T10:03:38;95620.47;;;16.41;94.73
14067;BME280;7108;42.684;23.350;2023-05-03T10:06:06;95598.75;;;16.61;93.91
14067;BME280;7108;42.684;23.350;2023-05-03T10:08:40;95617.41;;;16.80;86.78
14067;BME280;7108;42.684;23.350;2023-05-03T10:11:08;95625.19;;;16.71;88.85
14067;BME280;7108;42.684;23.350;2023-05-03T10:13:34;95602.56;;;16.40;89.76
14067;BME280;7108;42.684;23.350;2023-05-03T10:16:04;95638.75;;;16.54;92.63
14067;BME280;7108;42.684;23.350;2023-05-03T10:18:31;95625.56;;;16.52;88.71
14067;BME280;7108;42.684;23.350;2023-05-03T10:21:01;95623.25;;;16.75;94.81
14067;BME280;7108;42.684;23.350;2023-05-03T10:23:29;95589.81;;;16.85;88.85
14067;BME280;7108;42.684;23.350;2023-05-03T10:28:34;95582.84;;;17.05;86.44
14067;BME280;7108;42.684;23.350;2023-05-03T10:30:59;95578.19;;;16.95;87.85
14067;BME280;7108;42.684;23.350;2023-05-03T10:33:28;95586.34;;;16.95;89.55
14067;BME280;7108;42.684;23.350;2023-05-03T10:35:55;95578.94;;;16.99;90.61
14067;BME280;7108;42.684;23.350;2023-05-03T10:38:26;95582.47;;;16.93;93.29
14067;BME280;7108;42.684;23.350;2023-05-03T10:40:52;95580.50;;;16.90;89.42
14067;BME280;7108;42.684;23.350;2023-05-03T10:46:00;95570.00;;;16.88;88.49
14067;BME280;7108;42.684;23.350;2023-05-03T10:48:26;95575.84;;;17.01;91.15
14067;BME280;7108;42.684;23.350;2023-05-03T10:50:53;95557.56;;;16.94;90.24
14067;BME280;7108;42.684;23.350;2023-05-03T10:53:48;95576.59;;;17.05;87.81
14067;BME280;7108;42.684;23.350;2023-05-03T10:56:14;95571.56;;;16.93;90.35
14067;BME280;7108;42.684;23.350;2023-05-03T11:01:15;95575.44;;;16.78;89.73
14067;BME280;7108;42.684;23.350;2023-05-03T11:03:49;95583.63;;;16.88;93.52
14067;BME280;7108;42.684;23.350;2023-05-03T11:06:37;95555.59;;;16.74;91.07
14067;BME280;7108;42.684;23.350;2023-05-03T11:09:06;95576.22;;;16.85;93.93
14067;BME280;7108;42.684;23.350;2023-05-03T11:11:34;95567.69;;;16.87;94.61
14067;BME280;7108;42.684;23.350;2023-05-03T11:14:00;95553.69;;;16.92;94.80
14067;BME280;7108;42.684;23.350;2023-05-03T11:16:26;95517.88;;;16.83;97.78
14067;BME280;7108;42.684;23.350;2023-05-03T11:18:52;95560.28;;;17.05;95.45
14067;BME280;7108;42.684;23.350;2023-05-03T11:21:19;95561.44;;;17.07;96.78
14067;BME280;7108;42.684;23.350;2023-05-03T11:23:45;95549.00;;;16.99;95.61
14067;BME280;7108;42.684;23.350;2023-05-03T11:26:12;95539.66;;;16.93;93.87
14067;BME280;7108;42.684;23.350;2023-05-03T11:28:41;95545.91;;;17.08;97.10
14067;BME280;7108;42.684;23.350;2023-05-03T11:31:11;95533.03;;;17.01;98.25
14067;BME280;7108;42.684;23.350;2023-05-03T11:33:38;95547.06;;;17.07;97.59
14067;BME280;7108;42.684;23.350;2023-05-03T11:36:05;95544.31;;;17.00;97.23
14067;BME280;7108;42.684;23.350;2023-05-03T11:38:37;95561.06;;;17.02;95.16
14067;BME280;7108;42.684;23.350;2023-05-03T11:41:16;95561.06;;;17.02;94.95
14067;BME280;7108;42.684;23.350;2023-05-03T11:46:08;95544.34;;;17.07;99.64
14067;BME280;7108;42.684;23.350;2023-05-03T11:48:34;95520.59;;;17.21;94.56
14067;BME280;7108;42.684;23.350;2023-05-03T11:51:06;95548.19;;;17.44;94.35
14067;BME280;7108;42.684;23.350;2023-05-03T11:53:32;95523.72;;;17.30;96.35
14067;BME280;7108;42.684;23.350;2023-05-03T11:55:59;95542.78;;;17.26;95.88
14067;BME280;7108;42.684;23.350;2023-05-03T11:58:25;95534.19;;;17.24;96.27
14067;BME280;7108;42.684;23.350;2023-05-03T12:00:54;95545.50;;;17.33;100.00
14067;BME280;7108;42.684;23.350;2023-05-03T12:03:29;95541.22;;;17.39;98.86
14067;BME280;7108;42.684;23.350;2023-05-03T12:05:55;95528.34;;;17.40;94.77
14067;BME280;7108;42.684;23.350;2023-05-03T12:08:31;95529.13;;;17.44;96.05
14067;BME280;7108;42.684;23.350;2023-05-03T12:11:00;95522.16;;;17.36;95.35
14067;BME280;7108;42.684;23.350;2023-05-03T12:13:30;95532.28;;;17.28;95.24
14067;BME280;7108;42.684;23.350;2023-05-03T12:15:57;95539.66;;;17.35;96.47
14067;BME280;7108;42.684;23.350;2023-05-03T12:18:44;95540.03;;;17.33;95.32
14067;BME280;7108;42.684;23.350;2023-05-03T12:21:10;95535.75;;;17.25;98.01
14067;BME280;7108;42.684;23.350;2023-05-03T12:23:36;95534.59;;;17.09;94.23
14067;BME280;7108;42.684;23.350;2023-05-03T12:26:02;95533.03;;;17.01;96.99
14067;BME280;7108;42.684;23.350;2023-05-03T12:28:30;95523.34;;;16.79;99.07
14067;BME280;7108;42.684;23.350;2023-05-03T12:30:56;95526.47;;;16.74;100.00
14067;BME280;7108;42.684;23.350;2023-05-03T12:33:22;95521.78;;;16.61;100.00
14067;BME280;7108;42.684;23.350;2023-05-03T12:35:47;95536.94;;;16.55;100.00
14067;BME280;7108;42.684;23.350;2023-05-03T12:38:13;95504.69;;;16.33;100.00
14067;BME280;7108;42.684;23.350;2023-05-03T12:40:38;95514.38;;;16.37;100.00
14067;BME280;7108;42.684;23.350;2023-05-03T12:43:04;95531.09;;;16.39;100.00
14067;BME280;7108;42.684;23.350;2023-05-03T12:45:30;95530.69;;;16.30;100.00
14067;BME280;7108;42.684;23.350;2023-05-03T12:47:57;95528.75;;;16.31;100.00
14067;BME280;7108;42.684;23.350;2023-05-03T12:50:22;95512.38;;;16.17;100.00
14067;BME280;7108;42.684;23.350;2023-05-03T12:52:48;95500.31;;;16.07;100.00
14067;BME280;7108;42.684;23.350;2023-05-03T12:55:14;95512.31;;;16.03;100.00
14067;BME280;7108;42.684;23.350;2023-05-03T12:57:40;95512.72;;;15.94;100.00
14067;BME280;7108;42.684;23.350;2023-05-03T13:00:06;95493.56;;;15.60;100.00
14067;BME280;7108;42.684;23.350;2023-05-03T13:02:33;95524.31;;;15.77;100.00
14067;BME280;7108;42.684;23.350;2023-05-03T13:04:59;95514.97;;;15.72;100.00
14067;BME280;7108;42.684;23.350;2023-05-03T13:07:26;95509.88;;;15.63;100.00
14067;BME280;7108;42.684;23.350;2023-05-03T13:09:55;95515.28;;;15.60;100.00
14067;BME280;7108;42.684;23.350;2023-05-03T13:12:22;95521.88;;;15.59;100.00
14067;BME280;7108;42.684;23.350;2023-05-03T13:14:49;95520.72;;;15.60;100.00
14067;BME280;7108;42.684;23.350;2023-05-03T13:17:15;95523.81;;;15.58;100.00
14067;BME280;7108;42.684;23.350;2023-05-03T13:19:42;95512.81;;;15.30;100.00
14067;BME280;7108;42.684;23.350;2023-05-03T13:22:10;95536.50;;;15.33;100.00
14067;BME280;7108;42.684;23.350;2023-05-03T13:24:36;95539.16;;;15.26;100.00
14067;BME280;7108;42.684;23.350;2023-05-03T13:27:02;95541.56;;;15.35;100.00
14067;BME280;7108;42.684;23.350;2023-05-03T13:29:27;95532.63;;;15.34;100.00